TimeCDT,TemperatureF,Dew PointF,Humidity,Sea Level PressureIn,VisibilityMPH,Wind Direction,Wind SpeedMPH,Gust SpeedMPH,PrecipitationIn,Events,Conditions,WindDirDegrees,DateUTC
12:58 AM,74.1,69.8,86,29.85,10.0,SSE,5.8,-,N/A,,Partly Cloudy,150,2013-10-06 05:58:00
1:58 AM,73.9,68.4,83,29.84,10.0,SSE,8.1,-,N/A,,Scattered Clouds,160,2013-10-06 06:58:00
2:25 AM,75.2,68.0,78,29.88,10.0,West,20.7,24.2,N/A,,Mostly Cloudy,270,2013-10-06 07:25:00
2:36 AM,71.6,68.0,88,29.88,10.0,NW,13.8,27.6,N/A,,Overcast,310,2013-10-06 07:36:00
2:43 AM,69.8,68.0,94,29.88,10.0,NW,11.5,-,N/A,Rain,Light Rain,310,2013-10-06 07:43:00
2:58 AM,69.1,68.7,99,29.86,5.0,NW,10.4,-,0.02,Rain,Heavy Rain,310,2013-10-06 07:58:00
3:22 AM,68.0,68.0,100,29.86,5.0,North,5.8,-,N/A,Rain,Rain,350,2013-10-06 08:22:00
3:24 AM,68.0,68.0,100,29.86,5.0,North,4.6,-,N/A,Rain,Rain,360,2013-10-06 08:24:00
3:35 AM,68.0,68.0,100,29.85,5.0,NNW,6.9,-,N/A,Rain-Thunderstorm,Heavy Rain,340,2013-10-06 08:35:00
3:42 AM,68.0,68.0,100,29.86,2.5,NNW,5.8,-,N/A,Rain,Heavy Rain,330,2013-10-06 08:42:00
3:44 AM,68.0,68.0,100,29.87,2.0,North,4.6,-,N/A,Rain-Thunderstorm,Heavy Thunderstorms and Rain,350,2013-10-06 08:44:00
3:46 AM,68.0,68.0,100,29.87,1.8,North,5.8,-,N/A,Rain-Thunderstorm,Heavy Thunderstorms and Rain,360,2013-10-06 08:46:00
3:56 AM,66.2,66.2,100,29.86,1.2,North,3.5,-,N/A,Rain-Thunderstorm,Heavy Thunderstorms and Rain,360,2013-10-06 08:56:00
3:58 AM,67.1,67.1,100,29.86,1.2,Variable,3.5,-,0.70,Rain-Thunderstorm,Heavy Thunderstorms and Rain,0,2013-10-06 08:58:00
3:59 AM,66.2,66.2,100,29.86,1.2,Variable,3.5,-,N/A,Rain-Thunderstorm,Heavy Rain,0,2013-10-06 08:59:00
4:03 AM,66.2,66.2,100,29.86,1.5,NW,1.2,-,N/A,Rain-Thunderstorm,Heavy Rain,320,2013-10-06 09:03:00
4:09 AM,66.2,66.2,100,29.86,2.0,Calm,Calm,-,N/A,Rain-Thunderstorm,Heavy Rain,0,2013-10-06 09:09:00
4:16 AM,66.2,66.2,100,29.87,3.0,ESE,3.5,-,N/A,Rain-Thunderstorm,Rain,120,2013-10-06 09:16:00
4:25 AM,68.0,68.0,100,29.87,2.5,Calm,Calm,-,N/A,Rain,Heavy Rain,0,2013-10-06 09:25:00
4:27 AM,68.0,68.0,100,29.86,1.5,East,2.3,-,N/A,Rain,Heavy Rain,80,2013-10-06 09:27:00
4:29 AM,68.0,68.0,100,29.86,1.2,East,2.3,-,N/A,Rain,Heavy Rain,80,2013-10-06 09:29:00
4:35 AM,68.0,68.0,100,29.85,1.5,East,2.3,-,N/A,Rain,Heavy Rain,90,2013-10-06 09:35:00
4:37 AM,68.0,68.0,100,29.85,2.0,ENE,2.3,-,N/A,Rain,Rain,70,2013-10-06 09:37:00
4:39 AM,66.2,66.2,100,29.85,3.0,NE,2.3,-,N/A,Rain,Rain,50,2013-10-06 09:39:00
4:58 AM,66.7,66.7,100,29.86,9.0,SSW,4.6,-,0.56,Rain,Light Rain,200,2013-10-06 09:58:00
5:58 AM,67.3,67.3,100,29.86,7.0,South,4.6,-,0.26,Rain,Rain,180,2013-10-06 10:58:00
6:13 AM,68.0,68.0,100,29.87,9.0,South,5.8,-,N/A,Rain,Light Rain,190,2013-10-06 11:13:00
6:20 AM,68.0,68.0,100,29.87,10.0,South,3.5,-,N/A,Rain,Light Rain,190,2013-10-06 11:20:00
6:58 AM,67.1,67.1,100,29.86,10.0,SSW,4.6,-,0.07,,Light Drizzle,200,2013-10-06 11:58:00
7:00 AM,66.2,66.2,100,29.86,10.0,SSW,4.6,-,N/A,,Mostly Cloudy,200,2013-10-06 12:00:00
7:23 AM,66.2,66.2,100,29.87,10.0,SSW,5.8,-,N/A,,Mostly Cloudy,210,2013-10-06 12:23:00
7:38 AM,66.2,66.2,100,29.87,10.0,WNW,15.0,-,N/A,,Drizzle,300,2013-10-06 12:38:00
7:58 AM,61.5,61.5,100,29.88,10.0,WNW,12.7,-,0.01,,Light Drizzle,290,2013-10-06 12:58:00
8:10 AM,60.8,60.8,100,29.88,10.0,West,10.4,-,N/A,,Overcast,280,2013-10-06 13:10:00
8:14 AM,60.8,60.8,100,29.88,10.0,West,11.5,-,N/A,,Overcast,280,2013-10-06 13:14:00
8:24 AM,60.8,60.8,100,29.89,10.0,West,11.5,-,N/A,,Overcast,270,2013-10-06 13:24:00
8:41 AM,59.0,59.0,100,29.90,10.0,West,12.7,17.3,N/A,,Overcast,280,2013-10-06 13:41:00
8:45 AM,59.0,59.0,100,29.90,10.0,West,12.7,-,N/A,,Overcast,280,2013-10-06 13:45:00
8:58 AM,58.3,58.3,100,29.91,6.0,West,12.7,-,0.00,,Overcast,280,2013-10-06 13:58:00
9:26 AM,57.2,57.2,100,29.92,4.0,WNW,9.2,-,N/A,,Light Drizzle,290,2013-10-06 14:26:00
9:35 AM,57.2,57.2,100,29.91,6.0,WNW,9.2,-,N/A,,Overcast,290,2013-10-06 14:35:00
9:56 AM,55.4,55.4,100,29.90,10.0,NW,8.1,-,N/A,,Overcast,320,2013-10-06 14:56:00
9:58 AM,55.6,55.6,100,29.90,10.0,NW,8.1,-,0.00,,Overcast,310,2013-10-06 14:58:00
10:30 AM,55.4,55.4,100,29.90,10.0,NNW,3.5,-,N/A,,Overcast,330,2013-10-06 15:30:00
10:58 AM,56.5,56.5,100,29.91,10.0,West,2.3,-,N/A,,Overcast,270,2013-10-06 15:58:00
11:16 AM,57.2,57.2,100,29.91,10.0,West,6.9,-,N/A,,Overcast,270,2013-10-06 16:16:00
11:17 AM,57.2,57.2,100,29.91,10.0,WNW,5.8,-,N/A,,Light Drizzle,290,2013-10-06 16:17:00
11:28 AM,57.2,57.2,100,29.91,10.0,West,6.9,-,N/A,,Overcast,260,2013-10-06 16:28:00
11:44 AM,57.2,57.2,100,29.92,10.0,West,5.8,-,N/A,,Overcast,270,2013-10-06 16:44:00
11:58 AM,58.1,57.6,98,29.91,10.0,West,5.8,-,0.00,,Overcast,270,2013-10-06 16:58:00
12:01 PM,59.0,57.2,94,29.91,10.0,WSW,6.9,-,N/A,,Overcast,250,2013-10-06 17:01:00
12:08 PM,59.0,57.2,94,29.90,10.0,West,10.4,-,N/A,,Overcast,260,2013-10-06 17:08:00
12:58 PM,60.3,52.5,76,29.89,10.0,West,8.1,-,N/A,,Overcast,270,2013-10-06 17:58:00
1:37 PM,60.8,53.6,77,29.88,10.0,SW,6.9,-,N/A,,Light Drizzle,220,2013-10-06 18:37:00
1:55 PM,60.8,55.4,82,29.87,10.0,SSW,10.4,-,N/A,,Overcast,210,2013-10-06 18:55:00
1:58 PM,59.9,55.6,86,29.87,10.0,SW,9.2,-,0.01,,Overcast,220,2013-10-06 18:58:00
2:01 PM,59.0,55.4,88,29.87,10.0,SW,9.2,-,N/A,,Heavy Drizzle,220,2013-10-06 19:01:00
2:12 PM,60.8,55.4,82,29.86,10.0,SW,8.1,-,N/A,,Overcast,220,2013-10-06 19:12:00
2:20 PM,60.8,55.4,82,29.86,10.0,SW,9.2,-,N/A,,Light Drizzle,220,2013-10-06 19:20:00
2:40 PM,59.0,55.4,88,29.85,10.0,WSW,6.9,-,N/A,,Overcast,240,2013-10-06 19:40:00
2:45 PM,59.0,55.4,88,29.85,10.0,WSW,5.8,-,N/A,,Light Drizzle,240,2013-10-06 19:45:00
2:58 PM,59.4,55.8,88,29.86,8.0,SSW,5.8,-,0.01,Rain,Light Rain,210,2013-10-06 19:58:00
3:12 PM,59.0,57.2,94,29.85,10.0,SW,8.1,-,N/A,,Overcast,230,2013-10-06 20:12:00
3:18 PM,59.0,57.2,94,29.85,9.0,SW,6.9,-,N/A,Rain,Rain,230,2013-10-06 20:18:00
3:58 PM,56.8,54.5,92,29.86,10.0,SSW,11.5,-,0.05,,Light Drizzle,210,2013-10-06 20:58:00
4:01 PM,57.2,55.4,94,29.86,10.0,SSW,10.4,-,N/A,,Overcast,200,2013-10-06 21:01:00
4:58 PM,59.7,56.1,88,29.85,10.0,SSW,10.4,-,0.00,,Partly Cloudy,210,2013-10-06 21:58:00
5:58 PM,58.1,55.0,90,29.85,10.0,SW,9.2,-,N/A,,Mostly Cloudy,230,2013-10-06 22:58:00
6:58 PM,55.9,55.9,100,29.87,10.0,WSW,8.1,-,N/A,,Clear,250,2013-10-06 23:58:00
7:58 PM,54.1,54.1,100,29.89,10.0,SW,4.6,-,N/A,,Clear,230,2013-10-07 00:58:00
8:58 PM,54.1,54.1,100,29.91,10.0,WSW,6.9,-,N/A,,Clear,240,2013-10-07 01:58:00
9:58 PM,55.0,53.8,96,29.95,10.0,NW,8.1,-,N/A,,Clear,310,2013-10-07 02:58:00
10:58 PM,54.0,47.5,79,29.96,10.0,NW,4.6,-,N/A,,Clear,320,2013-10-07 03:58:00
11:58 PM,51.8,49.6,92,29.96,10.0,Calm,Calm,-,N/A,,Clear,0,2013-10-07 04:58:00